Time;durP1;ratioP1;P1;durP2;ratioP2;P2;SDS_P1;SDS_P2;PMS_P1;PMS_P2;Temp;Humidity;BMP_temperature;BMP_pressure;BME280_temperature;BME280_humidity;BME280_pressure;Samples;Min_cycle;Max_cycle;Signal;HPM_P1;HPM_P2
2024/01/20 00:00:25;;;;;;;12.07;8.60;;;;;;;;;;2610344;54;20482;-74
2024/01/20 00:09:36;;;;;;;16.43;9.77;;;;;;;;;;2611233;39;20876;-75
2024/01/20 00:15:07;;;;;;;22.60;12.17;;;;;;;;;;2613097;54;20979;-75
2024/01/20 00:20:37;;;;;;;16.63;10.13;;;;;;;;;;2611617;54;20510;-75
2024/01/20 00:26:07;;;;;;;11.40;8.10;;;;;;;;;;2612875;54;20429;-76
2024/01/20 00:31:37;;;;;;;14.17;8.33;;;;;;;;;;2611973;54;20351;-76
2024/01/20 00:37:06;;;;;;;12.97;7.70;;;;;;;;;;2611199;54;20408;-76
2024/01/20 00:42:36;;;;;;;20.30;11.73;;;;;;;;;;2613400;54;20338;-75
2024/01/20 00:48:06;;;;;;;25.33;11.67;;;;;;;;;;2611973;39;20780;-75
2024/01/20 00:53:35;;;;;;;9.73;4.93;;;;;;;;;;2613115;54;20387;-75
2024/01/20 00:59:05;;;;;;;18.90;11.27;;;;;;;;;;2612701;54;20390;-73
2024/01/20 01:04:35;;;;;;;19.80;11.80;;;;;;;;;;2613187;54;20419;-74
2024/01/20 01:10:06;;;;;;;7.50;4.83;;;;;;;;;;2612089;54;20413;-74
2024/01/20 01:15:35;;;;;;;16.67;9.87;;;;;;;;;;2613068;54;20338;-72
2024/01/20 01:21:05;;;;;;;23.83;11.20;;;;;;;;;;2612740;54;20386;-77
2024/01/20 01:26:34;;;;;;;6.90;6.07;;;;;;;;;;2614301;54;20420;-82
2024/01/20 01:32:04;;;;;;;7.97;4.57;;;;;;;;;;2617368;54;20399;-82
2024/01/20 01:37:34;;;;;;;15.57;9.47;;;;;;;;;;2610548;54;21004;-74
2024/01/20 01:43:04;;;;;;;12.87;8.23;;;;;;;;;;2609866;54;20408;-76
2024/01/20 01:48:34;;;;;;;7.07;5.33;;;;;;;;;;2610097;54;20347;-72
2024/01/20 01:54:03;;;;;;;27.93;10.73;;;;;;;;;;2609673;54;20386;-74
2024/01/20 01:59:33;;;;;;;13.50;9.70;;;;;;;;;;2610824;54;20342;-74
2024/01/20 02:05:03;;;;;;;23.23;12.67;;;;;;;;;;2611857;54;20355;-75
2024/01/20 02:14:05;;;;;;;21.80;13.10;;;;;;;;;;2611475;54;20373;-73
2024/01/20 02:19:41;;;;;;;20.90;10.47;;;;;;;;;;2609980;54;20563;-76
2024/01/20 02:25:10;;;;;;;11.20;9.27;;;;;;;;;;2610956;54;20394;-74
2024/01/20 02:30:45;;;;;;;9.93;6.60;;;;;;;;;;2610974;54;20387;-73
2024/01/20 02:36:15;;;;;;;15.40;11.40;;;;;;;;;;2610760;54;20375;-74
2024/01/20 02:41:44;;;;;;;25.20;8.03;;;;;;;;;;2611376;54;20404;-76
2024/01/20 02:47:14;;;;;;;18.83;10.50;;;;;;;;;;2611749;39;20747;-75
2024/01/20 02:52:44;;;;;;;15.73;10.10;;;;;;;;;;2612807;54;20422;-77
2024/01/20 02:58:13;;;;;;;12.93;7.83;;;;;;;;;;2612341;39;20765;-77
2024/01/20 03:03:44;;;;;;;18.80;11.77;;;;;;;;;;2612062;54;20386;-77
2024/01/20 03:09:14;;;;;;;10.77;8.03;;;;;;;;;;2610914;54;21654;-76
2024/01/20 03:14:44;;;;;;;19.53;12.73;;;;;;;;;;2611337;54;20359;-76
2024/01/20 03:20:14;;;;;;;20.27;6.70;;;;;;;;;;2611494;39;20757;-77
2024/01/20 03:25:43;;;;;;;29.40;9.53;;;;;;;;;;2611981;54;20443;-77
2024/01/20 03:31:13;;;;;;;22.80;12.50;;;;;;;;;;2611798;54;21001;-76
2024/01/20 03:36:43;;;;;;;25.00;12.47;;;;;;;;;;2616983;39;20762;-82
2024/01/20 03:42:13;;;;;;;8.03;5.70;;;;;;;;;;2615090;54;20418;-82
2024/01/20 03:47:42;;;;;;;14.10;8.70;;;;;;;;;;2615966;54;20383;-81
2024/01/20 03:53:12;;;;;;;23.07;13.20;;;;;;;;;;2610725;54;20471;-75
2024/01/20 03:58:41;;;;;;;14.73;9.70;;;;;;;;;;2610551;54;20949;-77
2024/01/20 04:04:11;;;;;;;23.50;9.63;;;;;;;;;;2610788;54;20396;-76
2024/01/20 04:09:41;;;;;;;8.87;6.53;;;;;;;;;;2610179;54;20515;-75
2024/01/20 04:15:11;;;;;;;20.63;12.00;;;;;;;;;;2610390;39;20776;-75
2024/01/20 04:20:42;;;;;;;10.43;7.60;;;;;;;;;;2611489;54;20441;-75
2024/01/20 04:26:12;;;;;;;14.47;7.00;;;;;;;;;;2611456;54;20338;-76
2024/01/20 04:31:41;;;;;;;30.93;9.73;;;;;;;;;;2610505;54;20410;-80
2024/01/20 04:37:11;;;;;;;33.97;13.93;;;;;;;;;;2614538;54;20503;-81
2024/01/20 04:42:41;;;;;;;16.03;10.33;;;;;;;;;;2614302;54;20395;-79
2024/01/20 04:48:10;;;;;;;17.80;9.57;;;;;;;;;;2611234;54;20377;-75
2024/01/20 04:53:40;;;;;;;14.97;9.80;;;;;;;;;;2610087;54;20394;-76
2024/01/20 04:59:10;;;;;;;12.93;8.80;;;;;;;;;;2610851;54;20377;-77
2024/01/20 05:04:40;;;;;;;14.07;7.67;;;;;;;;;;2610631;54;20383;-74
2024/01/20 05:16:18;;;;;;;19.73;10.37;;;;;;;;;;2611842;54;20375;-76
2024/01/20 05:21:47;;;;;;;20.43;11.53;;;;;;;;;;2609474;54;20383;-74
2024/01/20 05:27:17;;;;;;;4.17;3.80;;;;;;;;;;2610290;54;20362;-75
2024/01/20 05:32:47;;;;;;;17.50;12.53;;;;;;;;;;2610654;54;20390;-74
2024/01/20 05:38:17;;;;;;;16.97;9.20;;;;;;;;;;2611799;54;20330;-74
2024/01/20 05:43:46;;;;;;;5.57;4.10;;;;;;;;;;2611759;54;20503;-73
2024/01/20 05:49:16;;;;;;;9.27;6.03;;;;;;;;;;2612735;39;20737;-75
2024/01/20 05:54:45;;;;;;;11.47;7.30;;;;;;;;;;2613272;54;20377;-74
2024/01/20 06:00:16;;;;;;;6.47;5.50;;;;;;;;;;2613712;46;20786;-75
2024/01/20 06:05:46;;;;;;;18.33;9.90;;;;;;;;;;2611533;54;20385;-74
2024/01/20 06:20:43;;;;;;;9.07;5.50;;;;;;;;;;2610261;54;20429;-76
2024/01/20 06:26:12;;;;;;;9.80;8.67;;;;;;;;;;2611344;39;21712;-75
2024/01/20 06:31:41;;;;;;;14.73;9.00;;;;;;;;;;2610620;54;20385;-76
2024/01/20 06:37:10;;;;;;;14.90;9.37;;;;;;;;;;2613492;39;20853;-78
2024/01/20 06:42:39;;;;;;;5.33;4.23;;;;;;;;;;2611381;54;20443;-76
2024/01/20 06:48:09;;;;;;;15.13;6.37;;;;;;;;;;2609810;54;20395;-75
2024/01/20 06:53:39;;;;;;;13.23;6.47;;;;;;;;;;2614255;54;20461;-75
2024/01/20 06:59:09;;;;;;;17.93;11.17;;;;;;;;;;2613568;54;20366;-75
2024/01/20 07:04:38;;;;;;;14.73;8.20;;;;;;;;;;2614324;39;20786;-81
2024/01/20 07:10:08;;;;;;;8.70;5.10;;;;;;;;;;2615091;54;20362;-80
2024/01/20 07:15:38;;;;;;;8.70;5.17;;;;;;;;;;2613491;54;20479;-82
2024/01/20 07:21:08;;;;;;;18.20;9.80;;;;;;;;;;2614260;54;20395;-82
2024/01/20 07:26:37;;;;;;;16.17;8.20;;;;;;;;;;2613088;54;20458;-76
2024/01/20 07:32:07;;;;;;;12.10;7.70;;;;;;;;;;2611712;54;20355;-75
2024/01/20 07:37:37;;;;;;;12.63;7.27;;;;;;;;;;2615093;54;20488;-82
2024/01/20 07:43:06;;;;;;;11.40;4.87;;;;;;;;;;2616565;54;20366;-82
2024/01/20 07:48:36;;;;;;;16.33;8.60;;;;;;;;;;2616400;54;20366;-79
2024/01/20 07:54:06;;;;;;;13.00;7.77;;;;;;;;;;2617710;54;20355;-80
2024/01/20 07:59:38;;;;;;;13.90;8.83;;;;;;;;;;2616501;54;20411;-82
2024/01/20 08:05:08;;;;;;;15.33;9.40;;;;;;;;;;2618174;54;20420;-82
2024/01/20 08:10:38;;;;;;;8.30;5.97;;;;;;;;;;2617854;39;20768;-81
2024/01/20 08:25:35;;;;;;;8.17;6.97;;;;;;;;;;2610553;54;20424;-75
2024/01/20 08:31:04;;;;;;;11.70;7.67;;;;;;;;;;2612244;54;21394;-74
2024/01/20 08:36:33;;;;;;;6.67;5.97;;;;;;;;;;2611439;54;20396;-74
2024/01/20 08:42:03;;;;;;;17.60;10.87;;;;;;;;;;2612812;54;20399;-75
2024/01/20 08:47:33;;;;;;;15.57;10.27;;;;;;;;;;2612738;54;20426;-74
2024/01/20 08:53:03;;;;;;;6.63;5.70;;;;;;;;;;2612121;54;20346;-75
2024/01/20 08:58:32;;;;;;;12.53;9.50;;;;;;;;;;2614036;54;20459;-74
2024/01/20 09:04:02;;;;;;;9.73;6.30;;;;;;;;;;2614019;54;20378;-76
2024/01/20 09:09:31;;;;;;;9.20;8.27;;;;;;;;;;2614060;54;20391;-74
2024/01/20 09:15:01;;;;;;;7.60;6.83;;;;;;;;;;2614696;39;20875;-76
2024/01/20 09:20:30;;;;;;;5.13;4.67;;;;;;;;;;2614310;54;20396;-75
2024/01/20 09:26:00;;;;;;;9.80;8.70;;;;;;;;;;2613000;54;20362;-73
2024/01/20 09:31:30;;;;;;;15.70;8.93;;;;;;;;;;2612627;54;20381;-73
2024/01/20 09:36:59;;;;;;;14.50;9.33;;;;;;;;;;2612510;54;20358;-74
2024/01/20 09:42:29;;;;;;;8.90;7.57;;;;;;;;;;2610705;54;20402;-73
2024/01/20 09:47:59;;;;;;;14.63;7.20;;;;;;;;;;2612235;54;20358;-75
2024/01/20 09:53:30;;;;;;;6.33;5.73;;;;;;;;;;2611822;54;20377;-75
2024/01/20 09:59:00;;;;;;;7.97;6.83;;;;;;;;;;2613964;54;20367;-75
2024/01/20 10:04:30;;;;;;;5.73;5.03;;;;;;;;;;2613326;54;20395;-76
2024/01/20 10:10:00;;;;;;;6.00;4.93;;;;;;;;;;2613206;54;20386;-76
2024/01/20 10:21:41;;;;;;;5.57;4.73;;;;;;;;;;2611490;54;20382;-75
2024/01/20 10:27:13;;;;;;;8.93;6.37;;;;;;;;;;2611935;54;20434;-74
2024/01/20 10:32:44;;;;;;;10.13;6.17;;;;;;;;;;2613261;54;20366;-73
2024/01/20 10:38:14;;;;;;;10.37;6.90;;;;;;;;;;2614755;39;20735;-74
2024/01/20 10:43:49;;;;;;;5.23;4.47;;;;;;;;;;2614513;54;20527;-74
2024/01/20 10:49:20;;;;;;;10.23;6.40;;;;;;;;;;2614465;54;20388;-74
2024/01/20 10:54:51;;;;;;;6.53;5.60;;;;;;;;;;2612491;46;20404;-74
2024/01/20 11:00:21;;;;;;;5.13;4.67;;;;;;;;;;2613444;39;21795;-75
2024/01/20 11:05:51;;;;;;;7.00;4.93;;;;;;;;;;2615566;39;20755;-79
2024/01/20 11:11:21;;;;;;;5.80;5.30;;;;;;;;;;2615693;54;20886;-76
2024/01/20 11:20:31;;;;;;;6.37;4.93;;;;;;;;;;2615280;39;20890;-78
2024/01/20 11:29:13;;;;;;;7.60;6.80;;;;;;;;;;2616179;54;20432;-81
2024/01/20 11:31:48;;;;;;;10.03;5.67;;;;;;;;;;2614999;54;20428;-79
2024/01/20 11:37:18;;;;;;;7.60;5.60;;;;;;;;;;2615005;54;20424;-77
2024/01/20 11:42:48;;;;;;;6.20;5.20;;;;;;;;;;2615278;54;20380;-76
2024/01/20 11:48:21;;;;;;;7.07;4.80;;;;;;;;;;2615445;54;20365;-77
2024/01/20 11:53:50;;;;;;;6.10;5.60;;;;;;;;;;2614388;54;20414;-76
2024/01/20 11:59:20;;;;;;;6.70;6.20;;;;;;;;;;2614306;54;20394;-72
2024/01/20 12:04:50;;;;;;;8.00;5.93;;;;;;;;;;2614698;54;20395;-76
2024/01/20 12:10:19;;;;;;;5.77;5.17;;;;;;;;;;2613702;54;20541;-71
2024/01/20 12:15:49;;;;;;;6.10;5.60;;;;;;;;;;2610525;39;20861;-76
2024/01/20 12:21:19;;;;;;;5.20;4.80;;;;;;;;;;2611725;54;20509;-73
2024/01/20 12:26:50;;;;;;;8.63;5.20;;;;;;;;;;2610125;54;20554;-79
2024/01/20 12:32:19;;;;;;;8.10;6.53;;;;;;;;;;2612340;54;20455;-78
2024/01/20 12:37:49;;;;;;;6.90;5.33;;;;;;;;;;2612587;54;20405;-74
2024/01/20 12:43:19;;;;;;;6.30;5.70;;;;;;;;;;2612413;54;20355;-74
2024/01/20 12:48:48;;;;;;;10.93;6.50;;;;;;;;;;2612729;39;20789;-79
2024/01/20 12:54:18;;;;;;;6.90;5.60;;;;;;;;;;2615170;54;20359;-80
2024/01/20 12:59:48;;;;;;;7.10;6.03;;;;;;;;;;2614431;54;20397;-77
2024/01/20 13:05:18;;;;;;;4.53;4.17;;;;;;;;;;2615359;54;21412;-74
2024/01/20 13:10:50;;;;;;;6.50;5.90;;;;;;;;;;2612551;54;20410;-73
2024/01/20 13:22:28;;;;;;;12.50;7.30;;;;;;;;;;2613452;54;20431;-73
2024/01/20 13:27:58;;;;;;;8.23;6.37;;;;;;;;;;2612713;54;20374;-72
2024/01/20 13:33:28;;;;;;;5.90;5.10;;;;;;;;;;2612897;54;20392;-72
2024/01/20 13:38:57;;;;;;;8.57;6.23;;;;;;;;;;2613903;54;20378;-79
2024/01/20 13:44:27;;;;;;;6.03;5.43;;;;;;;;;;2614961;54;20338;-80
2024/01/20 13:49:57;;;;;;;5.60;4.77;;;;;;;;;;2613033;54;20496;-73
2024/01/20 13:55:27;;;;;;;9.03;5.63;;;;;;;;;;2612227;54;20916;-74
2024/01/20 14:00:56;;;;;;;7.20;6.23;;;;;;;;;;2612520;54;20382;-72
2024/01/20 14:06:26;;;;;;;6.70;6.00;;;;;;;;;;2613204;54;20356;-72
2024/01/20 14:11:56;;;;;;;6.33;5.73;;;;;;;;;;2612424;54;20417;-75
2024/01/20 14:17:25;;;;;;;6.07;5.57;;;;;;;;;;2614167;54;20512;-73
2024/01/20 14:22:55;;;;;;;7.50;5.90;;;;;;;;;;2614569;54;20424;-74
2024/01/20 14:28:25;;;;;;;7.13;5.33;;;;;;;;;;2613713;54;20379;-73
2024/01/20 14:33:55;;;;;;;8.43;5.87;;;;;;;;;;2614550;54;20528;-73
2024/01/20 14:39:25;;;;;;;6.17;5.30;;;;;;;;;;2614411;54;20395;-74
2024/01/20 14:44:54;;;;;;;6.70;6.10;;;;;;;;;;2613902;54;20497;-74
2024/01/20 14:50:24;;;;;;;5.80;5.20;;;;;;;;;;2614785;54;20327;-76
2024/01/20 14:55:53;;;;;;;7.50;5.97;;;;;;;;;;2614940;54;20367;-76
2024/01/20 15:01:23;;;;;;;6.67;5.80;;;;;;;;;;2614306;54;20491;-77
2024/01/20 15:06:52;;;;;;;8.33;6.37;;;;;;;;;;2615278;54;20503;-77
2024/01/20 15:12:22;;;;;;;7.73;6.93;;;;;;;;;;2614883;54;20325;-75
2024/01/20 15:21:36;;;;;;;6.13;5.53;;;;;;;;;;2615336;54;20361;-74
2024/01/20 15:27:06;;;;;;;6.83;6.23;;;;;;;;;;2614931;54;20355;-75
2024/01/20 15:32:36;;;;;;;10.37;7.00;;;;;;;;;;2614313;39;21169;-74
2024/01/20 15:38:05;;;;;;;8.37;7.40;;;;;;;;;;2615382;39;20773;-77
2024/01/20 15:43:35;;;;;;;8.77;7.40;;;;;;;;;;2615526;54;20395;-78
2024/01/20 15:49:05;;;;;;;8.00;7.20;;;;;;;;;;2616326;54;20925;-77
2024/01/20 15:54:34;;;;;;;12.50;8.87;;;;;;;;;;2615359;54;20330;-75
2024/01/20 16:00:06;;;;;;;10.63;8.03;;;;;;;;;;2613989;54;20355;-77
2024/01/20 16:05:35;;;;;;;10.73;8.90;;;;;;;;;;2613963;54;20394;-76
2024/01/20 16:11:05;;;;;;;11.13;8.07;;;;;;;;;;2613715;54;20366;-72
2024/01/20 16:16:34;;;;;;;11.50;8.80;;;;;;;;;;2614047;54;20374;-73
2024/01/20 16:22:04;;;;;;;8.50;7.60;;;;;;;;;;2611950;54;20542;-74
2024/01/20 16:27:34;;;;;;;11.50;9.43;;;;;;;;;;2613385;54;20383;-78
2024/01/20 16:33:04;;;;;;;10.60;8.83;;;;;;;;;;2615519;54;20948;-77
2024/01/20 16:38:33;;;;;;;8.60;7.80;;;;;;;;;;2614860;54;20416;-78
2024/01/20 16:44:04;;;;;;;10.03;8.00;;;;;;;;;;2615555;54;20387;-78
2024/01/20 16:49:33;;;;;;;12.00;10.53;;;;;;;;;;2615169;54;20905;-80
2024/01/20 16:55:03;;;;;;;20.03;13.20;;;;;;;;;;2614179;54;20434;-78
2024/01/20 16:57:49;;;;;;;12.60;11.30;;;;;;;;;;2615002;54;20412;-77
2024/01/20 17:00:16;;;;;;;11.80;9.20;;;;;;;;;;2615434;54;20415;-77
2024/01/20 17:05:49;;;;;;;14.73;10.87;;;;;;;;;;2615776;54;20403;-78
2024/01/20 17:11:19;;;;;;;12.50;9.10;;;;;;;;;;2614457;39;20984;-76
2024/01/20 17:16:48;;;;;;;12.83;10.10;;;;;;;;;;2614231;54;20381;-76
2024/01/20 17:25:53;;;;;;;11.27;10.07;;;;;;;;;;2612245;54;20382;-77
2024/01/20 17:31:22;;;;;;;9.80;7.43;;;;;;;;;;2612819;54;20362;-75
2024/01/20 17:36:52;;;;;;;10.13;8.77;;;;;;;;;;2610690;54;20906;-77
2024/01/20 17:42:22;;;;;;;12.93;8.70;;;;;;;;;;2614870;54;20415;-79
2024/01/20 17:47:52;;;;;;;15.07;9.60;;;;;;;;;;2614356;54;20531;-74
2024/01/20 17:53:21;;;;;;;13.20;11.83;;;;;;;;;;2612699;54;20905;-75
2024/01/20 17:58:51;;;;;;;12.30;9.83;;;;;;;;;;2614229;54;20351;-74
2024/01/20 18:04:21;;;;;;;15.07;11.10;;;;;;;;;;2613585;54;20913;-75
2024/01/20 18:09:53;;;;;;;16.50;13.83;;;;;;;;;;2613500;54;21027;-75
2024/01/20 18:15:22;;;;;;;9.87;8.87;;;;;;;;;;2613648;54;20383;-73
2024/01/20 18:20:52;;;;;;;13.43;9.80;;;;;;;;;;2613971;54;21409;-73
2024/01/20 18:26:21;;;;;;;9.27;8.17;;;;;;;;;;2610668;54;20474;-74
2024/01/20 18:31:51;;;;;;;12.63;7.73;;;;;;;;;;2612924;54;20379;-74
2024/01/20 18:37:22;;;;;;;10.87;7.80;;;;;;;;;;2614797;54;20379;-79
2024/01/20 18:42:51;;;;;;;11.10;9.63;;;;;;;;;;2617013;54;20373;-79
2024/01/20 18:48:21;;;;;;;13.50;9.50;;;;;;;;;;2614341;54;20378;-75
2024/01/20 18:53:51;;;;;;;10.10;9.03;;;;;;;;;;2612623;54;20384;-74
2024/01/20 18:59:20;;;;;;;10.87;9.77;;;;;;;;;;2613232;54;20407;-75
2024/01/20 19:04:50;;;;;;;10.40;9.17;;;;;;;;;;2614696;54;20342;-74
2024/01/20 19:10:20;;;;;;;9.03;8.20;;;;;;;;;;2614161;54;20358;-75
2024/01/20 19:15:49;;;;;;;9.63;8.30;;;;;;;;;;2613241;54;20386;-73
2024/01/20 19:21:19;;;;;;;9.67;8.20;;;;;;;;;;2613681;54;20351;-74
2024/01/20 19:30:33;;;;;;;10.20;9.30;;;;;;;;;;2612976;39;22412;-74
2024/01/20 19:36:02;;;;;;;9.93;7.13;;;;;;;;;;2613205;54;20398;-75
2024/01/20 19:41:32;;;;;;;12.53;8.57;;;;;;;;;;2617100;54;20362;-78
2024/01/20 19:47:05;;;;;;;9.40;8.50;;;;;;;;;;2621646;54;20359;-78
2024/01/20 19:52:36;;;;;;;10.17;9.00;;;;;;;;;;2620028;54;20390;-78
2024/01/20 19:58:06;;;;;;;10.47;8.70;;;;;;;;;;2617893;54;20419;-74
2024/01/20 20:03:35;;;;;;;8.80;8.00;;;;;;;;;;2612169;54;20408;-75
2024/01/20 20:09:06;;;;;;;10.07;9.17;;;;;;;;;;2612931;54;20342;-74
2024/01/20 20:14:35;;;;;;;9.33;7.80;;;;;;;;;;2612745;54;20912;-74
2024/01/20 20:20:05;;;;;;;9.17;8.30;;;;;;;;;;2612021;54;20411;-74
2024/01/20 20:25:35;;;;;;;9.53;8.60;;;;;;;;;;2613802;39;20751;-74
2024/01/20 20:31:07;;;;;;;8.63;7.93;;;;;;;;;;2613396;54;20559;-74
2024/01/20 20:36:39;;;;;;;7.90;7.23;;;;;;;;;;2612510;54;20429;-74
2024/01/20 20:42:08;;;;;;;9.80;8.90;;;;;;;;;;2612862;54;20390;-74
2024/01/20 20:47:38;;;;;;;10.60;7.90;;;;;;;;;;2613368;54;20440;-74
2024/01/20 20:53:07;;;;;;;8.10;7.40;;;;;;;;;;2613446;54;20374;-76
2024/01/20 20:58:37;;;;;;;9.37;8.57;;;;;;;;;;2617397;54;20371;-80
2024/01/20 21:04:09;;;;;;;7.77;6.90;;;;;;;;;;2615807;54;20383;-75
2024/01/20 21:09:39;;;;;;;9.07;8.27;;;;;;;;;;2614077;54;20378;-74
2024/01/20 21:15:09;;;;;;;13.17;8.67;;;;;;;;;;2612735;54;20427;-75
2024/01/20 21:20:39;;;;;;;8.53;7.77;;;;;;;;;;2614232;54;20415;-76
2024/01/20 21:26:08;;;;;;;7.23;6.50;;;;;;;;;;2614380;54;20414;-76
2024/01/20 21:35:19;;;;;;;7.00;6.50;;;;;;;;;;2614604;54;20904;-77
2024/01/20 21:40:49;;;;;;;8.73;7.93;;;;;;;;;;2614514;54;20412;-76
2024/01/20 21:46:19;;;;;;;9.40;7.47;;;;;;;;;;2615144;54;20383;-76
2024/01/20 21:51:48;;;;;;;7.20;6.50;;;;;;;;;;2615933;54;20379;-76
2024/01/20 21:57:18;;;;;;;7.20;6.70;;;;;;;;;;2613579;54;20402;-77
2024/01/20 22:02:48;;;;;;;7.97;7.17;;;;;;;;;;2615314;54;20386;-77
2024/01/20 22:08:17;;;;;;;7.63;7.03;;;;;;;;;;2614010;54;21088;-76
2024/01/20 22:13:47;;;;;;;9.40;6.13;;;;;;;;;;2614314;54;20353;-76
2024/01/20 22:19:16;;;;;;;8.00;7.27;;;;;;;;;;2614140;54;20908;-76
2024/01/20 22:24:46;;;;;;;9.57;8.57;;;;;;;;;;2614654;54;20354;-76
2024/01/20 22:30:16;;;;;;;6.63;6.23;;;;;;;;;;2614918;54;20495;-77
2024/01/20 22:35:45;;;;;;;6.87;6.20;;;;;;;;;;2614709;54;20417;-76
2024/01/20 22:41:16;;;;;;;8.10;7.30;;;;;;;;;;2616052;54;20382;-77
2024/01/20 22:46:46;;;;;;;4.90;4.63;;;;;;;;;;2615634;54;20395;-76
2024/01/20 22:52:16;;;;;;;6.30;5.80;;;;;;;;;;2615756;46;20378;-75
2024/01/20 22:57:46;;;;;;;6.60;6.20;;;;;;;;;;2617215;54;20406;-77
2024/01/20 23:03:16;;;;;;;7.23;6.60;;;;;;;;;;2617288;54;20398;-79
2024/01/20 23:08:50;;;;;;;5.63;5.33;;;;;;;;;;2616977;54;20358;-79
2024/01/20 23:14:20;;;;;;;6.97;6.40;;;;;;;;;;2614190;54;20426;-74
2024/01/20 23:19:50;;;;;;;6.13;5.73;;;;;;;;;;2614033;54;20395;-74
2024/01/20 23:25:20;;;;;;;7.33;6.27;;;;;;;;;;2613491;54;20363;-75
2024/01/20 23:30:50;;;;;;;6.43;5.83;;;;;;;;;;2617019;54;20379;-78
2024/01/20 23:36:19;;;;;;;5.90;5.60;;;;;;;;;;2616994;54;20393;-79
2024/01/20 23:41:49;;;;;;;6.57;6.17;;;;;;;;;;2613408;54;20420;-74
2024/01/20 23:47:19;;;;;;;7.00;6.60;;;;;;;;;;2613768;54;20479;-76
2024/01/20 23:52:48;;;;;;;7.60;7.10;;;;;;;;;;2613447;54;20378;-74
2024/01/20 23:58:18;;;;;;;6.03;5.70;;;;;;;;;;2613941;54;21392;-74
